This is the latest recevied weather packets stored in our database for station/object KA1ROH. If no packets are shown the sender has not sent any weather packets the latest 10 day(s).
| Time | Temp. | Humidity | Pressure | Rain* | Wind** | Luminosity | Snow |
|---|---|---|---|---|---|---|---|
| 1777478362 | 17.78° C | 54% | 1010.5 hPa | 0 mm | - | - | - |
| 1777476498 | 18.33° C | 51% | 1010.8 hPa | 0 mm | - | - | - |
| 1777474096 | 17.22° C | 51% | 1011.5 hPa | 0 mm | - | - | - |
| 1777469165 | 15° C | 53% | 1012.5 hPa | 0 mm | - | - | - |
| 1777468564 | 14.44° C | 53% | 1012.9 hPa | 0 mm | - | - | - |
| 1777463697 | 13.33° C | 52% | 1013.5 hPa | 0 mm | - | - | - |
| 1777461232 | 12.22° C | 53% | 1013.5 hPa | 0 mm | - | - | - |
| 1777458198 | 11.11° C | 51% | 1013.2 hPa | 0 mm | - | - | - |
| 1777457597 | 11.11° C | 50% | 1013.2 hPa | 0 mm | - | - | - |
| 1777455133 | 11.11° C | 50% | 1012.9 hPa | 0 mm | - | - | - |
| 1777452098 | 11.11° C | 50% | 1012.9 hPa | 0 mm | - | - | - |
| 1777449664 | 11.11° C | 52% | 1012.9 hPa | 0 mm | - | - | - |
| 1777445459 | 10.56° C | 58% | 1013.5 hPa | 0 mm | - | - | - |
| 1777444258 | 11.11° C | 57% | 1013.9 hPa | 0 mm | - | - | - |
| 1777441855 | 12.22° C | 55% | 1014.2 hPa | 0 mm | - | - | - |
| 1777440654 | 12.78° C | 53% | 1014.2 hPa | 0 mm | - | - | - |
| 1777438821 | 13.89° C | 52% | 1013.9 hPa | 0 mm | - | - | - |
| 1777427946 | 18.33° C | 44% | 1013.2 hPa | 0 mm | - | - | - |
| 1777424343 | 19.44° C | 43% | 1012.9 hPa | 0 mm | - | - | - |
| 1777423742 | 19.44° C | 44% | 1012.9 hPa | 0 mm | - | - | - |
| 1777420707 | 20° C | 39% | 1012.5 hPa | 0 mm | - | - | - |
| 1777417103 | 20.56° C | 37% | 1012.9 hPa | 0 mm | - | - | - |
| 1777416471 | 20.56° C | 36% | 1013.2 hPa | 0 mm | - | - | - |
| 1777414037 | 21.67° C | 33% | 1013.5 hPa | 0 mm | - | - | - |
| 1777413374 | 21.67° C | 32% | 1013.2 hPa | 0 mm | - | - | - |
* Rain latest hour (hover to see other rain measurements)
** Current wind speed in m/s (hover to see current wind gust speed)